Latest Weather Observations for Cobar Airport

IDN60801

Issued at 4:23 pm EDT Tuesday 29 November 2022 (issued every 10 minutes, with the page automatically refreshed every 10 minutes)

About weather observations | Map of weather stations | Latest weather observations for NSW | Other Formats
Station Details ID: 048237 Name: COBAR AIRPORT AWS Lat: -31.54 Lon: 145.80 Height: 218.0 m
Data from the previous 72 hours. | See also: Recent months at Cobar Airport
Date/Time
EDT
Temp
°C
App
Temp
°C
Dew
Point
°C
Rel
Hum
%
Delta-T
°C
Wind Press
QNH
hPa
Press
MSL
hPa
Rain since
9am
mm
Dir  Spd
km/h
Gust
km/h
Spd
kts
Gust
kts
29/04:00pm 26.3 22.1 8.3 32 9.8 S 20 30 11 16 1012.2 1011.2 0.0
29/03:30pm 25.4 21.2 7.5 32 9.6 SSW 19 30 10 16 1012.5 1011.5 0.0
29/03:00pm 25.5 21.7 7.6 32 9.6 SSE 17 33 9 18 1012.8 1011.8 0.0
29/02:30pm 24.5 19.9 5.8 30 9.6 SSE 19 28 10 15 1013.3 1012.4 0.0
29/02:00pm 24.7 20.6 6.4 31 9.5 S 17 26 9 14 1013.6 1012.7 0.0
29/01:30pm 24.5 21.4 7.2 33 9.1 SSE 13 26 7 14 1013.9 1013.0 0.0
29/01:00pm 23.0 18.9 6.3 34 8.6 SSW 17 32 9 17 1014.2 1013.3 0.0
29/12:30pm 22.1 17.6 7.1 38 7.8 SSW 20 35 11 19 1014.4 1013.5 0.0
29/12:00pm 21.5 16.9 6.6 38 7.6 SSE 20 30 11 16 1014.8 1013.8 0.0
29/11:30am 20.9 16.4 6.8 40 7.2 S 20 32 11 17 1015.0 1014.0 0.0
29/11:00am 20.8 16.5 7.1 41 7.1 SSE 19 32 10 17 1015.2 1014.2 0.0
29/10:30am 20.1 15.5 6.5 41 6.9 SSE 20 35 11 19 1015.3 1014.3 0.0
29/10:00am 19.9 15.5 7.3 44 6.5 S 20 26 11 14 1015.3 1014.3 0.0
29/09:30am 18.9 14.2 6.1 43 6.4 SSE 20 30 11 16 1015.4 1014.4 0.0
29/09:00am 18.6 13.1 5.8 43 6.3 SSE 24 37 13 20 1015.4 1014.4 0.0
29/08:30am 18.0 13.1 6.8 48 5.6 S 22 30 12 16 1015.1 1014.1 0.0
29/08:00am 16.4 12.5 7.1 54 4.7 SSE 17 24 9 13 1014.7 1013.7 0.0
29/07:30am 15.0 12.0 7.5 61 3.8 SSE 13 19 7 10 1014.4 1013.5 0.0
29/07:00am 13.4 11.2 7.8 69 2.8 SSE 9 11 5 6 1014.1 1013.2 0.0
29/06:30am 11.2 9.2 6.9 75 2.1 SSE 7 9 4 5 1013.6 1012.7 0.0
29/06:00am 10.8 8.3 6.6 75 2.0 S 9 11 5 6 1013.4 1012.5 0.0
29/05:30am 11.6 8.7 6.7 72 2.4 S 11 13 6 7 1013.2 1012.3 0.0
29/05:00am 11.9 9.5 6.8 71 2.5 S 9 13 5 7 1013.1 1012.2 0.0
29/04:30am 12.0 10.0 6.9 71 2.5 SSW 7 9 4 5 1012.9 1011.9 0.0
29/04:00am 12.2 9.8 6.9 70 2.6 SSW 9 11 5 6 1012.8 1011.8 0.0
29/03:30am 13.1 10.3 6.9 66 3.0 SSW 11 13 6 7 1012.6 1011.6 0.0
29/03:00am 13.1 10.3 7.1 67 2.9 S 11 13 6 7 1012.4 1011.4 0.0
29/02:30am 13.2 10.8 7.0 66 3.0 SSW 9 11 5 6 1012.3 1011.3 0.0
29/02:00am 14.2 11.4 7.0 62 3.6 S 11 15 6 8 1012.3 1011.3 0.0
29/01:30am 14.9 12.0 6.7 58 4.0 SSE 11 15 6 8 1012.4 1011.4 0.0
29/01:26am 15.0 11.8 6.8 58 4.0 S 13 15 7 8 1012.4 1011.4 0.0
29/01:00am 15.6 12.0 6.6 55 4.4 S 15 20 8 11 1012.4 1011.4 0.0
29/12:30am 16.2 12.1 6.3 52 4.9 S 17 22 9 12 1012.4 1011.4 0.0
29/12:00am 16.9 12.4 6.1 49 5.3 S 19 26 10 14 1012.4 1011.4 0.0
 
Date/Time
EDT
Temp
°C
App
Temp
°C
Dew
Point
°C
Rel
Hum
%
Delta-T
°C
Wind Press
QNH
hPa
Press
MSL
hPa
Rain since
9am
mm
Dir  Spd
km/h
Gust
km/h
Spd
kts
Gust
kts
28/11:30pm 16.8 13.8 6.0 49 5.3 S 11 15 6 8 1012.2 1011.2 0.0
28/11:03pm 18.0 14.3 6.2 46 5.9 SSW 15 19 8 10 1012.1 1011.1 0.0
28/11:00pm 18.0 14.3 6.2 46 5.9 SSW 15 20 8 11 1012.1 1011.1 0.0
28/10:56pm 18.1 14.0 6.0 45 6.0 SSW 17 20 9 11 1012.0 1011.0 0.0
28/10:38pm 18.6 14.5 6.4 45 6.1 SSW 17 24 9 13 1011.7 1010.7 0.0
28/10:30pm 18.7 14.7 6.5 45 6.1 S 17 24 9 13 1011.7 1010.7 0.0
28/10:00pm 19.4 15.4 6.8 44 6.4 S 17 24 9 13 1011.2 1010.2 0.0
28/09:30pm 20.3 15.7 6.6 41 7.0 SSW 20 26 11 14 1010.7 1009.7 0.0
28/09:00pm 20.6 17.3 6.5 40 7.2 SSW 13 15 7 8 1010.1 1009.1 0.0
28/08:30pm 21.8 18.1 6.1 36 8.0 SSW 15 19 8 10 1009.5 1008.6 0.0
28/08:00pm 22.9 19.1 5.8 33 8.7 SSW 15 20 8 11 1009.0 1008.1 0.0
28/07:30pm 24.0 19.5 6.3 32 9.2 SW 19 26 10 14 1008.6 1007.6 0.0
28/07:00pm 24.8 20.2 5.6 29 9.9 SSW 19 28 10 15 1008.3 1007.3 0.0
28/06:30pm 25.3 20.5 5.5 28 10.2 SW 20 30 11 16 1007.9 1006.9 0.0
28/06:00pm 25.4 20.5 5.1 27 10.4 SSW 20 30 11 16 1007.7 1006.7 0.0
28/05:30pm 25.8 21.2 5.4 27 10.5 SSW 19 28 10 15 1007.6 1006.6 0.0
28/05:00pm 25.8 21.0 4.9 26 10.7 WSW 19 30 10 16 1007.6 1006.6 0.0
28/04:30pm 26.4 21.8 5.4 26 10.9 WSW 19 30 10 16 1007.6 1006.6 0.0
28/04:00pm 26.0 21.6 6.6 29 10.3 SW 19 26 10 14 1007.8 1006.8 0.0
28/03:30pm 25.0 21.1 5.2 28 10.1 W 15 30 8 16 1008.0 1007.0 0.0
28/03:00pm 25.5 20.8 6.2 29 10.1 WSW 20 30 11 16 1008.2 1007.2 0.0
28/02:30pm 24.7 20.6 6.0 30 9.7 S 17 32 9 17 1008.6 1007.6 0.0
28/02:00pm 24.9 20.4 7.1 32 9.4 SW 20 32 11 17 1008.9 1007.9 0.0
28/01:30pm 24.8 20.4 6.5 31 9.6 SW 19 32 10 17 1009.2 1008.3 0.0
28/01:00pm 23.6 19.4 5.5 31 9.2 SW 17 28 9 15 1009.3 1008.4 0.0
28/12:30pm 24.0 19.7 7.2 34 8.9 S 19 30 10 16 1009.7 1008.8 0.0
28/12:00pm 23.2 18.7 6.9 35 8.5 SSW 20 33 11 18 1010.0 1009.0 0.0
28/11:30am 22.7 18.7 6.5 35 8.4 S 17 26 9 14 1010.0 1009.0 0.0
28/11:00am 22.1 19.1 7.9 40 7.5 S 13 24 7 13 1010.1 1009.1 0.0
28/10:30am 21.1 17.3 7.7 42 7.0 SSW 17 24 9 13 1010.1 1009.1 0.0
28/10:00am 20.6 16.9 7.9 44 6.7 S 17 30 9 16 1010.1 1009.1 0.0
28/09:30am 20.2 16.6 8.5 47 6.2 S 17 22 9 12 1010.2 1009.2 0.0
28/09:00am 19.8 16.5 9.4 51 5.6 SSE 17 22 9 12 1010.1 1009.1 0.0
28/08:30am 18.6 14.8 9.1 54 5.0 SSE 19 24 10 13 1009.9 1008.9 0.0
28/08:00am 17.4 13.2 9.6 60 4.1 SSE 22 28 12 15 1009.4 1008.5 0.0
28/07:30am 16.5 13.5 10.6 68 3.2 S 17 26 9 14 1009.3 1008.4 0.0
28/07:00am 14.7 14.8 11.5 81 1.7 SW 2 13 1 7 1009.2 1008.3 0.0
28/06:30am 12.7 12.8 10.2 85 1.3 CALM 0 0 0 0 1008.8 1007.8 0.0
28/06:00am 12.8 12.9 10.0 83 1.5 CALM 0 0 0 0 1008.3 1007.3 0.0
28/05:30am 12.8 12.7 9.6 81 1.6 CALM 0 0 0 0 1008.0 1007.0 0.0
28/05:00am 13.4 13.5 10.0 80 1.8 CALM 0 0 0 0 1007.9 1006.9 0.0
28/04:30am 14.0 14.1 10.2 78 2.0 CALM 0 0 0 0 1007.9 1006.9 0.0
28/04:00am 14.7 14.9 10.7 77 2.1 CALM 0 0 0 0 1007.6 1006.6 0.0
28/03:30am 14.8 15.0 10.4 75 2.3 CALM 0 0 0 0 1007.6 1006.6 0.0
28/03:00am 16.1 16.5 11.1 72 2.7 CALM 0 0 0 0 1007.4 1006.4 0.0
28/02:30am 16.7 15.7 11.0 69 3.1 SW 7 9 4 5 1007.3 1006.3 0.0
28/02:00am 17.6 15.9 11.2 66 3.5 SSW 11 13 6 7 1007.2 1006.2 0.0
28/01:30am 18.6 16.6 11.4 63 4.0 SSW 13 17 7 9 1007.3 1006.3 0.0
28/01:00am 19.4 16.6 11.2 59 4.5 SSW 17 24 9 13 1007.4 1006.4 0.0
28/12:30am 19.7 16.9 11.5 59 4.6 SSW 17 24 9 13 1007.4 1006.4 0.0
28/12:00am 20.5 16.9 11.7 57 4.9 SSW 22 33 12 18 1007.4 1006.4 0.0
 
Date/Time
EDT
Temp
°C
App
Temp
°C
Dew
Point
°C
Rel
Hum
%
Delta-T
°C
Wind Press
QNH
hPa
Press
MSL
hPa
Rain since
9am
mm
Dir  Spd
km/h
Gust
km/h
Spd
kts
Gust
kts
27/11:30pm 20.9 18.7 12.1 57 5.0 SSW 15 20 8 11 1007.1 1006.1 0.0
27/11:00pm 21.8 19.2 12.1 54 5.5 SSW 17 22 9 12 1006.7 1005.7 0.0
27/10:30pm 22.9 19.3 11.9 50 6.3 SSW 22 32 12 17 1006.2 1005.2 0.0
27/10:00pm 23.3 21.2 12.3 50 6.3 SSW 15 20 8 11 1005.7 1004.7 0.0
27/09:30pm 24.0 21.1 12.3 48 6.7 SSW 19 28 10 15 1004.9 1004.0 0.0
27/09:00pm 24.6 21.9 12.9 48 6.9 SSW 19 26 10 14 1004.5 1003.5 0.0
27/08:30pm 25.7 23.0 12.9 45 7.5 SSW 19 26 10 14 1004.0 1003.0 0.0
27/08:00pm 26.6 24.2 12.6 41 8.2 SSW 17 26 9 14 1003.5 1002.5 0.0
27/07:30pm 27.8 24.2 13.0 40 8.8 SSW 24 37 13 20 1003.1 1002.1 0.0
27/07:00pm 28.3 25.2 12.2 37 9.5 SW 20 30 11 16 1002.8 1001.8 0.0
27/06:30pm 28.5 25.2 11.6 35 9.8 SW 20 28 11 15 1002.4 1001.4 0.0
27/06:00pm 30.0 25.3 12.0 33 10.6 SSW 28 46 15 25 1002.1 1001.1 0.0
27/05:30pm 30.5 26.5 11.9 31 11.0 SW 24 35 13 19 1001.9 1000.9 0.0
27/05:00pm 30.9 27.1 12.3 32 11.1 SW 24 35 13 19 1001.9 1000.9 0.0
27/04:30pm 29.0 24.6 12.8 36 9.6 WSW 28 41 15 22 1002.0 1001.0 0.0
27/04:00pm 30.7 27.6 11.6 31 11.3 WSW 19 28 10 15 1001.7 1000.7 0.0
27/03:30pm 31.5 27.9 11.8 30 11.6 SW 22 37 12 20 1001.8 1000.8 0.0
27/03:00pm 31.4 27.3 10.2 27 12.3 W 22 32 12 17 1002.0 1001.0 0.0
27/02:40pm 31.6 26.4 10.3 27 12.3 W 28 46 15 25 1002.1 1001.1 0.0
27/02:30pm 30.9 26.7 9.7 27 12.1 W 22 30 12 16 1002.2 1001.2 0.0
27/02:00pm 31.1 27.5 10.4 28 12.0 W 20 35 11 19 1002.4 1001.4 0.0
27/01:45pm 30.4 25.2 10.4 29 11.5 W 28 48 15 26 1002.5 1001.5 0.0
27/01:30pm 31.7 27.4 9.3 25 12.7 W 22 33 12 18 1002.4 1001.4 0.0
27/01:00pm 32.4 28.4 9.2 24 13.3 WNW 20 32 11 17 1002.6 1001.6 0.0
27/12:30pm 32.1 26.9 9.0 24 13.1 WNW 26 46 14 25 1002.7 1001.7 0.0
27/12:00pm 32.1 27.8 10.8 27 12.5 WNW 24 32 13 17 1003.0 1002.0 0.0
27/11:43am 30.9 25.6 9.7 27 12.1 WNW 28 43 15 23 1003.2 1002.2 0.0
27/11:30am 31.5 28.0 10.8 28 12.0 NW 20 30 11 16 1003.1 1002.1 0.0
27/11:00am 31.1 27.6 11.0 29 11.8 NNW 20 30 11 16 1003.3 1002.3 0.0
27/10:30am 31.1 27.4 11.5 30 11.5 NW 22 32 12 17 1003.6 1002.6 0.0
27/10:00am 29.1 25.5 9.8 30 11.0 WNW 19 24 10 13 1003.9 1002.9 0.0
27/09:30am 28.4 25.4 9.2 30 10.7 WSW 15 30 8 16 1004.0 1003.0 0.0
27/09:00am 28.6 24.3 7.2 26 11.6 WNW 19 32 10 17 1004.0 1003.0 0.0
27/08:30am 27.4 22.6 8.8 31 10.3 N 24 39 13 21 1003.7 1002.7 0.0
27/08:00am 25.4 21.0 8.8 35 9.1 N 22 32 12 17 1003.7 1002.7 0.0
27/07:30am 23.8 19.8 8.2 37 8.4 N 19 24 10 13 1003.7 1002.7 0.0
27/07:00am 23.4 19.6 7.5 36 8.4 NNE 17 22 9 12 1003.3 1002.3 0.0
27/06:30am 24.2 19.6 6.5 32 9.2 N 20 26 11 14 1003.3 1002.3 0.0
27/06:00am 24.5 19.5 6.3 31 9.5 N 22 30 12 16 1003.1 1002.1 0.0
27/05:30am 23.4 19.5 7.1 35 8.5 N 17 24 9 13 1003.3 1002.3 0.0
27/05:00am 23.5 19.6 7.2 35 8.6 NNE 17 20 9 11 1003.3 1002.3 0.0
27/04:30am 22.6 20.1 8.3 40 7.6 NNE 11 15 6 8 1003.2 1002.2 0.0
27/04:00am 22.7 20.2 8.0 39 7.8 NE 11 17 6 9 1003.2 1002.2 0.0
27/03:30am 23.1 20.1 7.6 37 8.2 NE 13 17 7 9 1003.3 1002.3 0.0
27/03:00am 23.4 20.8 7.9 37 8.3 NE 11 15 6 8 1003.9 1002.9 0.0
27/02:30am 23.6 20.6 7.7 36 8.4 NE 13 17 7 9 1004.7 1003.7 0.0
27/02:00am 23.8 20.8 7.8 36 8.5 NNE 13 17 7 9 1005.3 1004.3 0.0
27/01:30am 23.7 20.3 7.8 36 8.5 NNE 15 19 8 10 1005.9 1004.9 0.0
27/01:00am 24.3 20.6 7.9 35 8.8 NNE 17 20 9 11 1006.3 1005.3 0.0
27/12:30am 24.0 19.8 7.6 35 8.7 NNE 19 24 10 13 1006.5 1005.5 0.0
27/12:00am 23.4 20.9 8.3 38 8.1 NE 11 13 6 7 1006.8 1005.8 0.0
 
Date/Time
EDT
Temp
°C
App
Temp
°C
Dew
Point
°C
Rel
Hum
%
Delta-T
°C
Wind Press
QNH
hPa
Press
MSL
hPa
Rain since
9am
mm
Dir  Spd
km/h
Gust
km/h
Spd
kts
Gust
kts
26/11:30pm 23.7 21.8 8.9 39 8.0 NE 9 13 5 7 1007.1 1006.1 0.0
26/11:00pm 24.2 22.1 8.2 36 8.6 NE 9 11 5 6 1007.1 1006.1 0.0
26/10:30pm 23.6 21.5 9.6 41 7.7 NE 11 13 6 7 1007.0 1006.0 0.0
26/10:00pm 24.6 22.6 8.5 36 8.7 NE 9 11 5 6 1007.1 1006.1 0.0
26/09:30pm 24.9 22.5 7.1 32 9.4 NE 9 11 5 6 1007.3 1006.3 0.0
26/09:00pm 25.5 23.5 7.1 31 9.8 N 7 9 4 5 1007.4 1006.4 0.0
26/08:30pm 26.7 24.1 7.7 30 10.3 N 11 13 6 7 1007.5 1006.5 0.0
26/08:00pm 28.4 26.0 7.1 26 11.5 N 9 11 5 6 1007.2 1006.2 0.0
26/07:30pm 29.2 26.2 6.0 23 12.3 N 11 13 6 7 1007.1 1006.1 0.0
26/07:00pm 30.1 27.0 5.4 21 13.1 NNW 11 20 6 11 1007.1 1006.1 0.0
26/06:30pm 31.1 27.7 4.0 18 14.1 NNW 11 19 6 10 1007.0 1006.0 0.0
26/06:00pm 30.6 26.1 4.4 19 13.7 NNW 17 22 9 12 1007.2 1006.2 0.0
26/05:30pm 31.1 27.8 6.2 21 13.4 N 13 20 7 11 1007.5 1006.5 0.0
26/05:00pm 31.8 27.5 5.3 19 14.2 NNW 17 26 9 14 1007.8 1006.8 0.0
26/04:30pm 31.7 27.8 5.3 19 14.1 NNE 15 26 8 14 1008.0 1007.0 0.0

Other formats

Comma delimited format used in spreadsheet applications
http://www.bom.gov.au/fwo/IDN60801/IDN60801.94710.axf

JavaScript Object Notation format (JSON) in row-major order
http://www.bom.gov.au/fwo/IDN60801/IDN60801.94710.json

Data quality

Most of these data are generated automatically and are frequently updated. Quality checks on data are not normally performed. It is possible for incorrect values to appear. Refer to information at About Latest Weather Observations and please check the disclaimer before using these data.